PWSweather.com
Personal Weather Stations
Station Observations
MIKESPOST
YorkGB

YorkGB

Lat: 53.9577018, Lon: -1.0822855

Elevation: 0

Station Type: WH1081

High Low Average
Temperature 60.8°F16.0°C 36.3°F2.4°C 45.3°F7.4°C
Dew Point 50.8°F10.4°C 35.3°F1.8°C 41.5°F5.3°C
Winds 4.0 mph 6.4 kmh Calm Calm 1.0 mph S1.6 kmh S
Wind Gusts 6.7 mph10.8 kmh -- 3.0 mph4.8 kmh
Humidity 99% 65% 87%
Pressure 30.64 in1037.6 mb 30.51 in1033.2 mb -
Precipitation 0.00 in0.0 mm - -
Hour Temp Dew Point Humidity Winds Wind Gusts Pressure Precip Precip Rate Daily Precip Total
12:19 AM 39.6°F4.2°C 38.0°F3.3°C 94% 0.3 mph SW0.5 kmh SW 1.0 mph1.6 kmh 30.59 in1035.9 mb 0.00 in0.0 mm 0.00 in/hr0.0 mm/hr 0.00 in0.0 mm
12:29 AM 39.9°F4.4°C 38.3°F3.5°C 94% 0.3 mph W0.5 kmh W 1.0 mph1.6 kmh 30.58 in1035.6 mb 0.00 in0.0 mm 0.00 in/hr0.0 mm/hr 0.00 in0.0 mm
12:39 AM 40.3°F4.6°C 39.0°F3.9°C 95% 0.1 mph SW0.2 kmh SW 1.0 mph1.6 kmh 30.59 in1035.9 mb 0.00 in0.0 mm 0.00 in/hr0.0 mm/hr 0.00 in0.0 mm
12:49 AM 39.9°F4.4°C 38.3°F3.5°C 94% 0.1 mph WSW0.2 kmh WSW 1.0 mph1.6 kmh 30.59 in1035.9 mb 0.00 in0.0 mm 0.00 in/hr0.0 mm/hr 0.00 in0.0 mm
12:59 AM 39.9°F4.4°C 38.3°F3.5°C 94% 0.2 mph S0.3 kmh S 1.0 mph1.6 kmh 30.59 in1035.9 mb 0.00 in0.0 mm 0.00 in/hr0.0 mm/hr 0.00 in0.0 mm
01:09 AM 40.1°F4.5°C 38.8°F3.8°C 95% 0.2 mph SSW0.3 kmh SSW 1.0 mph1.6 kmh 30.59 in1035.9 mb 0.00 in0.0 mm 0.00 in/hr0.0 mm/hr 0.00 in0.0 mm
01:19 AM 40.3°F4.6°C 39.0°F3.9°C 95% 1.0 mph WSW1.6 kmh WSW 1.0 mph1.6 kmh 30.59 in1035.9 mb 0.00 in0.0 mm 0.00 in/hr0.0 mm/hr 0.00 in0.0 mm
01:29 AM 41.0°F5.0°C 39.7°F4.3°C 95% 1.5 mph W2.4 kmh W 3.4 mph5.5 kmh 30.59 in1035.9 mb 0.00 in0.0 mm 0.00 in/hr0.0 mm/hr 0.00 in0.0 mm
01:39 AM 41.5°F5.3°C 40.2°F4.6°C 95% 1.1 mph N1.8 kmh N 2.3 mph3.7 kmh 30.59 in1035.9 mb 0.00 in0.0 mm 0.00 in/hr0.0 mm/hr 0.00 in0.0 mm
01:49 AM 41.7°F5.4°C 40.4°F4.7°C 95% 0.2 mph W0.3 kmh W 1.0 mph1.6 kmh 30.59 in1035.9 mb 0.00 in0.0 mm 0.00 in/hr0.0 mm/hr 0.00 in0.0 mm
01:59 AM 41.4°F5.2°C 40.0°F4.4°C 95% 0.2 mph SW0.3 kmh SW 1.0 mph1.6 kmh 30.59 in1035.9 mb 0.00 in0.0 mm 0.00 in/hr0.0 mm/hr 0.00 in0.0 mm
02:09 AM 41.5°F5.3°C 40.2°F4.6°C 95% 0.3 mph W0.5 kmh W 1.0 mph1.6 kmh 30.58 in1035.6 mb 0.00 in0.0 mm 0.00 in/hr0.0 mm/hr 0.00 in0.0 mm
02:19 AM 41.2°F5.1°C 39.9°F4.4°C 95% 0.3 mph WSW0.5 kmh WSW 1.0 mph1.6 kmh 30.58 in1035.6 mb 0.00 in0.0 mm 0.00 in/hr0.0 mm/hr 0.00 in0.0 mm
02:29 AM 40.6°F4.8°C 39.3°F4.1°C 95% 0.3 mph SW0.5 kmh SW 1.0 mph1.6 kmh 30.59 in1035.9 mb 0.00 in0.0 mm 0.00 in/hr0.0 mm/hr 0.00 in0.0 mm
02:39 AM 39.9°F4.4°C 38.6°F3.7°C 95% 0.1 mph NW0.2 kmh NW 1.0 mph1.6 kmh 30.59 in1035.9 mb 0.00 in0.0 mm 0.00 in/hr0.0 mm/hr 0.00 in0.0 mm
02:49 AM 39.4°F4.1°C 38.1°F3.4°C 95% 0.1 mph W0.2 kmh W 1.0 mph1.6 kmh 30.58 in1035.6 mb 0.00 in0.0 mm 0.00 in/hr0.0 mm/hr 0.00 in0.0 mm
02:59 AM 38.8°F3.8°C 37.5°F3.1°C 95% 0.2 mph WSW0.3 kmh WSW 1.0 mph1.6 kmh 30.58 in1035.6 mb 0.00 in0.0 mm 0.00 in/hr0.0 mm/hr 0.00 in0.0 mm
03:09 AM 38.3°F3.5°C 37.0°F2.8°C 95% Calm Calm -- 30.59 in1035.9 mb 0.00 in0.0 mm 0.00 in/hr0.0 mm/hr 0.00 in0.0 mm
03:19 AM 37.9°F3.3°C 36.6°F2.6°C 95% 0.2 mph WNW0.3 kmh WNW 1.0 mph1.6 kmh 30.59 in1035.9 mb 0.00 in0.0 mm 0.00 in/hr0.0 mm/hr 0.00 in0.0 mm
03:29 AM 37.4°F3.0°C 36.1°F2.3°C 95% 0.7 mph W1.1 kmh W 1.0 mph1.6 kmh 30.58 in1035.6 mb 0.00 in0.0 mm 0.00 in/hr0.0 mm/hr 0.00 in0.0 mm
03:39 AM 37.2°F2.9°C 35.9°F2.2°C 95% 1.1 mph WSW1.8 kmh WSW 2.3 mph3.7 kmh 30.58 in1035.6 mb 0.00 in0.0 mm 0.00 in/hr0.0 mm/hr 0.00 in0.0 mm
03:49 AM 37.2°F2.9°C 35.9°F2.2°C 95% 0.7 mph SW1.1 kmh SW 1.0 mph1.6 kmh 30.58 in1035.6 mb 0.00 in0.0 mm 0.00 in/hr0.0 mm/hr 0.00 in0.0 mm
03:59 AM 37.6°F3.1°C 36.6°F2.6°C 96% 0.7 mph WSW1.1 kmh WSW 1.0 mph1.6 kmh 30.58 in1035.6 mb 0.00 in0.0 mm 0.00 in/hr0.0 mm/hr 0.00 in0.0 mm
04:09 AM 37.8°F3.2°C 36.5°F2.5°C 95% 0.3 mph W0.5 kmh W 1.0 mph1.6 kmh 30.59 in1035.9 mb 0.00 in0.0 mm 0.00 in/hr0.0 mm/hr 0.00 in0.0 mm
04:19 AM 37.6°F3.1°C 36.3°F2.4°C 95% Calm Calm -- 30.59 in1035.9 mb 0.00 in0.0 mm 0.00 in/hr0.0 mm/hr 0.00 in0.0 mm
04:29 AM 37.4°F3.0°C 36.1°F2.3°C 95% 0.4 mph WSW0.6 kmh WSW 2.3 mph3.7 kmh 30.58 in1035.6 mb 0.00 in0.0 mm 0.00 in/hr0.0 mm/hr 0.00 in0.0 mm
04:39 AM 36.9°F2.7°C 35.6°F2.0°C 95% 0.5 mph W0.8 kmh W 2.3 mph3.7 kmh 30.59 in1035.9 mb 0.00 in0.0 mm 0.00 in/hr0.0 mm/hr 0.00 in0.0 mm
04:49 AM 37.0°F2.8°C 36.0°F2.2°C 96% 0.6 mph W1.0 kmh W 2.3 mph3.7 kmh 30.58 in1035.6 mb 0.00 in0.0 mm 0.00 in/hr0.0 mm/hr 0.00 in0.0 mm
04:59 AM 37.0°F2.8°C 36.0°F2.2°C 96% Calm Calm -- 30.59 in1035.9 mb 0.00 in0.0 mm 0.00 in/hr0.0 mm/hr 0.00 in0.0 mm
05:09 AM 37.6°F3.1°C 36.6°F2.6°C 96% 0.2 mph S0.3 kmh S 1.0 mph1.6 kmh 30.59 in1035.9 mb 0.00 in0.0 mm 0.00 in/hr0.0 mm/hr 0.00 in0.0 mm
05:19 AM 37.9°F3.3°C 36.9°F2.7°C 96% 0.8 mph S1.3 kmh S 2.3 mph3.7 kmh 30.59 in1035.9 mb 0.00 in0.0 mm 0.00 in/hr0.0 mm/hr 0.00 in0.0 mm
05:29 AM 37.8°F3.2°C 36.7°F2.6°C 96% 0.7 mph SSE1.1 kmh SSE 2.3 mph3.7 kmh 30.60 in1036.2 mb 0.00 in0.0 mm 0.00 in/hr0.0 mm/hr 0.00 in0.0 mm
05:39 AM 37.0°F2.8°C 36.0°F2.2°C 96% 0.3 mph W0.5 kmh W 1.0 mph1.6 kmh 30.59 in1035.9 mb 0.00 in0.0 mm 0.00 in/hr0.0 mm/hr 0.00 in0.0 mm
05:49 AM 36.3°F2.4°C 35.3°F1.8°C 96% Calm Calm -- 30.60 in1036.2 mb 0.00 in0.0 mm 0.00 in/hr0.0 mm/hr 0.00 in0.0 mm
05:59 AM 36.7°F2.6°C 35.7°F2.1°C 96% Calm Calm -- 30.60 in1036.2 mb 0.00 in0.0 mm 0.00 in/hr0.0 mm/hr 0.00 in0.0 mm
06:09 AM 36.7°F2.6°C 35.7°F2.1°C 96% Calm Calm -- 30.59 in1035.9 mb 0.00 in0.0 mm 0.00 in/hr0.0 mm/hr 0.00 in0.0 mm
06:19 AM 36.5°F2.5°C 35.5°F1.9°C 96% Calm Calm -- 30.60 in1036.2 mb 0.00 in0.0 mm 0.00 in/hr0.0 mm/hr 0.00 in0.0 mm
06:29 AM 36.3°F2.4°C 35.3°F1.8°C 96% 0.2 mph WSW0.3 kmh WSW 1.0 mph1.6 kmh 30.60 in1036.2 mb 0.00 in0.0 mm 0.00 in/hr0.0 mm/hr 0.00 in0.0 mm
06:39 AM 36.7°F2.6°C 35.9°F2.2°C 97% 0.1 mph WSW0.2 kmh WSW 1.0 mph1.6 kmh 30.60 in1036.2 mb 0.00 in0.0 mm 0.00 in/hr0.0 mm/hr 0.00 in0.0 mm
06:49 AM 37.2°F2.9°C 36.5°F2.5°C 97% 0.2 mph W0.3 kmh W 1.0 mph1.6 kmh 30.60 in1036.2 mb 0.00 in0.0 mm 0.00 in/hr0.0 mm/hr 0.00 in0.0 mm
06:59 AM 37.8°F3.2°C 37.0°F2.8°C 97% Calm Calm -- 30.60 in1036.2 mb 0.00 in0.0 mm 0.00 in/hr0.0 mm/hr 0.00 in0.0 mm
07:09 AM 38.1°F3.4°C 37.4°F3.0°C 97% 0.1 mph SE0.2 kmh SE 1.0 mph1.6 kmh 30.60 in1036.2 mb 0.00 in0.0 mm 0.00 in/hr0.0 mm/hr 0.00 in0.0 mm
07:19 AM 38.3°F3.5°C 37.5°F3.1°C 97% 0.1 mph W0.2 kmh W 1.0 mph1.6 kmh 30.61 in1036.6 mb 0.00 in0.0 mm 0.00 in/hr0.0 mm/hr 0.00 in0.0 mm
07:29 AM 38.3°F3.5°C 37.5°F3.1°C 97% Calm Calm -- 30.61 in1036.6 mb 0.00 in0.0 mm 0.00 in/hr0.0 mm/hr 0.00 in0.0 mm
07:39 AM 38.8°F3.8°C 38.3°F3.5°C 98% Calm Calm -- 30.61 in1036.6 mb 0.00 in0.0 mm 0.00 in/hr0.0 mm/hr 0.00 in0.0 mm
07:49 AM 39.6°F4.2°C 39.0°F3.9°C 98% 0.3 mph SE0.5 kmh SE 1.0 mph1.6 kmh 30.62 in1036.9 mb 0.00 in0.0 mm 0.00 in/hr0.0 mm/hr 0.00 in0.0 mm
07:59 AM 40.5°F4.7°C 39.9°F4.4°C 98% 0.2 mph SE0.3 kmh SE 1.0 mph1.6 kmh 30.61 in1036.6 mb 0.00 in0.0 mm 0.00 in/hr0.0 mm/hr 0.00 in0.0 mm
08:09 AM 41.2°F5.1°C 40.7°F4.8°C 98% Calm Calm -- 30.61 in1036.6 mb 0.00 in0.0 mm 0.00 in/hr0.0 mm/hr 0.00 in0.0 mm
08:19 AM 41.7°F5.4°C 41.2°F5.1°C 98% 0.2 mph S0.3 kmh S 1.0 mph1.6 kmh 30.62 in1036.9 mb 0.00 in0.0 mm 0.00 in/hr0.0 mm/hr 0.00 in0.0 mm
08:29 AM 42.6°F5.9°C 42.1°F5.6°C 98% Calm Calm -- 30.62 in1036.9 mb 0.00 in0.0 mm 0.00 in/hr0.0 mm/hr 0.00 in0.0 mm
08:39 AM 43.3°F6.3°C 43.1°F6.2°C 99% 0.5 mph S0.8 kmh S 2.3 mph3.7 kmh 30.62 in1036.9 mb 0.00 in0.0 mm 0.00 in/hr0.0 mm/hr 0.00 in0.0 mm
08:49 AM 43.9°F6.6°C 43.6°F6.4°C 99% 1.0 mph SSE1.6 kmh SSE 2.3 mph3.7 kmh 30.62 in1036.9 mb 0.00 in0.0 mm 0.00 in/hr0.0 mm/hr 0.00 in0.0 mm
08:59 AM 44.4°F6.9°C 44.2°F6.8°C 99% 1.2 mph SE1.9 kmh SE 2.3 mph3.7 kmh 30.63 in1037.3 mb 0.00 in0.0 mm 0.00 in/hr0.0 mm/hr 0.00 in0.0 mm
09:09 AM 45.1°F7.3°C 44.9°F7.2°C 99% 1.6 mph SE2.6 kmh SE 4.7 mph7.6 kmh 30.62 in1036.9 mb 0.00 in0.0 mm 0.00 in/hr0.0 mm/hr 0.00 in0.0 mm
09:19 AM 45.9°F7.7°C 45.6°F7.6°C 99% 1.1 mph S1.8 kmh S 4.7 mph7.6 kmh 30.63 in1037.3 mb 0.00 in0.0 mm 0.00 in/hr0.0 mm/hr 0.00 in0.0 mm
09:29 AM 46.9°F8.3°C 46.7°F8.2°C 99% 1.4 mph SE2.3 kmh SE 4.7 mph7.6 kmh 30.63 in1037.3 mb 0.00 in0.0 mm 0.00 in/hr0.0 mm/hr 0.00 in0.0 mm
09:39 AM 48.0°F8.9°C 47.8°F8.8°C 99% 1.4 mph SW2.3 kmh SW 4.7 mph7.6 kmh 30.63 in1037.3 mb 0.00 in0.0 mm 0.00 in/hr0.0 mm/hr 0.00 in0.0 mm
09:49 AM 49.1°F9.5°C 48.0°F8.9°C 96% 2.5 mph SW4.0 kmh SW 5.7 mph9.2 kmh 30.63 in1037.3 mb 0.00 in0.0 mm 0.00 in/hr0.0 mm/hr 0.00 in0.0 mm
09:59 AM 49.6°F9.8°C 46.5°F8.1°C 89% 2.5 mph S4.0 kmh S 4.7 mph7.6 kmh 30.63 in1037.3 mb 0.00 in0.0 mm 0.00 in/hr0.0 mm/hr 0.00 in0.0 mm
10:09 AM 50.7°F10.4°C 47.6°F8.7°C 89% 2.1 mph E3.4 kmh E 5.7 mph9.2 kmh 30.63 in1037.3 mb 0.00 in0.0 mm 0.00 in/hr0.0 mm/hr 0.00 in0.0 mm
10:19 AM 52.5°F11.4°C 47.1°F8.4°C 82% 2.5 mph SSW4.0 kmh SSW 5.7 mph9.2 kmh 30.63 in1037.3 mb 0.00 in0.0 mm 0.00 in/hr0.0 mm/hr 0.00 in0.0 mm
10:29 AM 55.9°F13.3°C 49.1°F9.5°C 78% 2.6 mph NW4.2 kmh NW 5.7 mph9.2 kmh 30.63 in1037.3 mb 0.00 in0.0 mm 0.00 in/hr0.0 mm/hr 0.00 in0.0 mm
10:39 AM 60.1°F15.6°C 50.8°F10.4°C 72% 2.1 mph SSW3.4 kmh SSW 4.7 mph7.6 kmh 30.63 in1037.3 mb 0.00 in0.0 mm 0.00 in/hr0.0 mm/hr 0.00 in0.0 mm
10:49 AM 60.8°F16.0°C 48.6°F9.2°C 65% 2.0 mph SW3.2 kmh SW 4.7 mph7.6 kmh 30.63 in1037.3 mb 0.00 in0.0 mm 0.00 in/hr0.0 mm/hr 0.00 in0.0 mm
10:59 AM 59.7°F15.4°C 48.1°F8.9°C 66% 1.7 mph SW2.7 kmh SW 3.4 mph5.5 kmh 30.63 in1037.3 mb 0.00 in0.0 mm 0.00 in/hr0.0 mm/hr 0.00 in0.0 mm
11:09 AM 58.8°F14.9°C 46.8°F8.2°C 65% 2.3 mph S3.7 kmh S 4.7 mph7.6 kmh 30.64 in1037.6 mb 0.00 in0.0 mm 0.00 in/hr0.0 mm/hr 0.00 in0.0 mm
11:19 AM 55.0°F12.8°C 44.8°F7.1°C 69% 3.1 mph NE5.0 kmh NE 4.7 mph7.6 kmh 30.64 in1037.6 mb 0.00 in0.0 mm 0.00 in/hr0.0 mm/hr 0.00 in0.0 mm
11:29 AM 52.7°F11.5°C 43.8°F6.6°C 72% 3.6 mph SW5.8 kmh SW 6.7 mph10.8 kmh 30.63 in1037.3 mb 0.00 in0.0 mm 0.00 in/hr0.0 mm/hr 0.00 in0.0 mm
11:39 AM 52.2°F11.2°C 44.4°F6.9°C 75% 3.0 mph N4.8 kmh N 6.7 mph10.8 kmh 30.63 in1037.3 mb 0.00 in0.0 mm 0.00 in/hr0.0 mm/hr 0.00 in0.0 mm
11:49 AM 52.0°F11.1°C 44.5°F6.9°C 76% 3.0 mph W4.8 kmh W 5.7 mph9.2 kmh 30.63 in1037.3 mb 0.00 in0.0 mm 0.00 in/hr0.0 mm/hr 0.00 in0.0 mm
11:59 AM 52.2°F11.2°C 44.4°F6.9°C 75% 2.4 mph SE3.9 kmh SE 3.4 mph5.5 kmh 30.64 in1037.6 mb 0.00 in0.0 mm 0.00 in/hr0.0 mm/hr 0.00 in0.0 mm
12:09 PM 52.0°F11.1°C 44.2°F6.8°C 75% 2.7 mph SW4.3 kmh SW 4.7 mph7.6 kmh 30.63 in1037.3 mb 0.00 in0.0 mm 0.00 in/hr0.0 mm/hr 0.00 in0.0 mm
12:19 PM 52.2°F11.2°C 44.4°F6.9°C 75% 1.9 mph SW3.1 kmh SW 4.7 mph7.6 kmh 30.63 in1037.3 mb 0.00 in0.0 mm 0.00 in/hr0.0 mm/hr 0.00 in0.0 mm
12:29 PM 52.2°F11.2°C 44.4°F6.9°C 75% 2.5 mph NE4.0 kmh NE 4.7 mph7.6 kmh 30.63 in1037.3 mb 0.00 in0.0 mm 0.00 in/hr0.0 mm/hr 0.00 in0.0 mm
12:39 PM 51.6°F10.9°C 43.5°F6.4°C 74% 3.9 mph SSE6.3 kmh SSE 6.7 mph10.8 kmh 30.63 in1037.3 mb 0.00 in0.0 mm 0.00 in/hr0.0 mm/hr 0.00 in0.0 mm
12:49 PM 51.6°F10.9°C 43.8°F6.6°C 75% 2.2 mph ENE3.5 kmh ENE 3.4 mph5.5 kmh 30.62 in1036.9 mb 0.00 in0.0 mm 0.00 in/hr0.0 mm/hr 0.00 in0.0 mm
12:59 PM 51.6°F10.9°C 43.8°F6.6°C 75% 1.9 mph ESE3.1 kmh ESE 3.4 mph5.5 kmh 30.62 in1036.9 mb 0.00 in0.0 mm 0.00 in/hr0.0 mm/hr 0.00 in0.0 mm
01:09 PM 51.8°F11.0°C 44.0°F6.7°C 75% 2.7 mph S4.3 kmh S 4.7 mph7.6 kmh 30.62 in1036.9 mb 0.00 in0.0 mm 0.00 in/hr0.0 mm/hr 0.00 in0.0 mm
01:19 PM 51.1°F10.6°C 43.3°F6.3°C 75% 4.0 mph WSW6.4 kmh WSW 6.7 mph10.8 kmh 30.62 in1036.9 mb 0.00 in0.0 mm 0.00 in/hr0.0 mm/hr 0.00 in0.0 mm
01:29 PM 50.9°F10.5°C 43.5°F6.4°C 76% 2.4 mph WSW3.9 kmh WSW 4.7 mph7.6 kmh 30.62 in1036.9 mb 0.00 in0.0 mm 0.00 in/hr0.0 mm/hr 0.00 in0.0 mm
01:39 PM 50.5°F10.3°C 43.2°F6.2°C 76% 2.7 mph WSW4.3 kmh WSW 5.7 mph9.2 kmh 30.62 in1036.9 mb 0.00 in0.0 mm 0.00 in/hr0.0 mm/hr 0.00 in0.0 mm
01:49 PM 50.9°F10.5°C 43.9°F6.6°C 77% 2.1 mph S3.4 kmh S 4.7 mph7.6 kmh 30.61 in1036.6 mb 0.00 in0.0 mm 0.00 in/hr0.0 mm/hr 0.00 in0.0 mm
01:59 PM 51.4°F10.8°C 44.0°F6.7°C 76% 1.6 mph SE2.6 kmh SE 3.4 mph5.5 kmh 30.61 in1036.6 mb 0.00 in0.0 mm 0.00 in/hr0.0 mm/hr 0.00 in0.0 mm
02:09 PM 51.4°F10.8°C 43.7°F6.5°C 75% 1.8 mph SSE2.9 kmh SSE 4.7 mph7.6 kmh 30.61 in1036.6 mb 0.00 in0.0 mm 0.00 in/hr0.0 mm/hr 0.00 in0.0 mm
02:19 PM 50.7°F10.4°C 43.3°F6.3°C 76% 3.2 mph SW5.1 kmh SW 4.7 mph7.6 kmh 30.60 in1036.2 mb 0.00 in0.0 mm 0.00 in/hr0.0 mm/hr 0.00 in0.0 mm
02:29 PM 50.4°F10.2°C 43.3°F6.3°C 77% 2.6 mph NNW4.2 kmh NNW 4.7 mph7.6 kmh 30.60 in1036.2 mb 0.00 in0.0 mm 0.00 in/hr0.0 mm/hr 0.00 in0.0 mm
02:39 PM 50.2°F10.1°C 43.2°F6.2°C 77% 2.7 mph SW4.3 kmh SW 5.7 mph9.2 kmh 30.60 in1036.2 mb 0.00 in0.0 mm 0.00 in/hr0.0 mm/hr 0.00 in0.0 mm
02:49 PM 49.6°F9.8°C 43.0°F6.1°C 78% 3.6 mph E5.8 kmh E 5.7 mph9.2 kmh 30.59 in1035.9 mb 0.00 in0.0 mm 0.00 in/hr0.0 mm/hr 0.00 in0.0 mm
02:59 PM 49.5°F9.7°C 42.8°F6.0°C 78% 2.5 mph E4.0 kmh E 3.4 mph5.5 kmh 30.60 in1036.2 mb 0.00 in0.0 mm 0.00 in/hr0.0 mm/hr 0.00 in0.0 mm
03:09 PM 49.6°F9.8°C 43.3°F6.3°C 79% 2.3 mph SSE3.7 kmh SSE 4.7 mph7.6 kmh 30.59 in1035.9 mb 0.00 in0.0 mm 0.00 in/hr0.0 mm/hr 0.00 in0.0 mm
03:19 PM 49.6°F9.8°C 43.3°F6.3°C 79% 2.8 mph SE4.5 kmh SE 5.7 mph9.2 kmh 30.59 in1035.9 mb 0.00 in0.0 mm 0.00 in/hr0.0 mm/hr 0.00 in0.0 mm
03:29 PM 49.6°F9.8°C 43.3°F6.3°C 79% 2.8 mph S4.5 kmh S 5.7 mph9.2 kmh 30.59 in1035.9 mb 0.00 in0.0 mm 0.00 in/hr0.0 mm/hr 0.00 in0.0 mm
03:39 PM 49.6°F9.8°C 43.3°F6.3°C 79% 2.1 mph SW3.4 kmh SW 3.4 mph5.5 kmh 30.59 in1035.9 mb 0.00 in0.0 mm 0.00 in/hr0.0 mm/hr 0.00 in0.0 mm
03:49 PM 49.6°F9.8°C 43.7°F6.5°C 80% 2.0 mph SE3.2 kmh SE 4.7 mph7.6 kmh 30.58 in1035.6 mb 0.00 in0.0 mm 0.00 in/hr0.0 mm/hr 0.00 in0.0 mm
03:59 PM 49.6°F9.8°C 43.7°F6.5°C 80% 2.8 mph ENE4.5 kmh ENE 4.7 mph7.6 kmh 30.58 in1035.6 mb 0.00 in0.0 mm 0.00 in/hr0.0 mm/hr 0.00 in0.0 mm
04:09 PM 49.6°F9.8°C 43.3°F6.3°C 79% 2.5 mph NE4.0 kmh NE 6.7 mph10.8 kmh 30.58 in1035.6 mb 0.00 in0.0 mm 0.00 in/hr0.0 mm/hr 0.00 in0.0 mm
04:19 PM 49.5°F9.7°C 43.2°F6.2°C 79% 2.5 mph SSW4.0 kmh SSW 6.7 mph10.8 kmh 30.58 in1035.6 mb 0.00 in0.0 mm 0.00 in/hr0.0 mm/hr 0.00 in0.0 mm
04:29 PM 49.5°F9.7°C 43.5°F6.4°C 80% 2.0 mph WSW3.2 kmh WSW 3.4 mph5.5 kmh 30.57 in1035.2 mb 0.00 in0.0 mm 0.00 in/hr0.0 mm/hr 0.00 in0.0 mm
04:39 PM 49.3°F9.6°C 43.3°F6.3°C 80% 1.3 mph SSE2.1 kmh SSE 3.4 mph5.5 kmh 30.57 in1035.2 mb 0.00 in0.0 mm 0.00 in/hr0.0 mm/hr 0.00 in0.0 mm
04:49 PM 49.1°F9.5°C 43.1°F6.2°C 80% 0.6 mph SE1.0 kmh SE 1.0 mph1.6 kmh 30.57 in1035.2 mb 0.00 in0.0 mm 0.00 in/hr0.0 mm/hr 0.00 in0.0 mm
04:59 PM 48.9°F9.4°C 43.3°F6.3°C 81% 0.8 mph W1.3 kmh W 2.3 mph3.7 kmh 30.57 in1035.2 mb 0.00 in0.0 mm 0.00 in/hr0.0 mm/hr 0.00 in0.0 mm
05:09 PM 48.7°F9.3°C 43.1°F6.2°C 81% 0.3 mph NE0.5 kmh NE 1.0 mph1.6 kmh 30.56 in1034.9 mb 0.00 in0.0 mm 0.00 in/hr0.0 mm/hr 0.00 in0.0 mm
05:19 PM 48.6°F9.2°C 42.9°F6.1°C 81% Calm Calm -- 30.56 in1034.9 mb 0.00 in0.0 mm 0.00 in/hr0.0 mm/hr 0.00 in0.0 mm
05:29 PM 48.2°F9.0°C 42.9°F6.1°C 82% 0.2 mph SSE0.3 kmh SSE 1.0 mph1.6 kmh 30.56 in1034.9 mb 0.00 in0.0 mm 0.00 in/hr0.0 mm/hr 0.00 in0.0 mm
05:39 PM 48.2°F9.0°C 42.9°F6.1°C 82% 1.2 mph SE1.9 kmh SE 3.4 mph5.5 kmh 30.56 in1034.9 mb 0.00 in0.0 mm 0.00 in/hr0.0 mm/hr 0.00 in0.0 mm
05:49 PM 48.2°F9.0°C 42.9°F6.1°C 82% 0.8 mph SSE1.3 kmh SSE 2.3 mph3.7 kmh 30.55 in1034.5 mb 0.00 in0.0 mm 0.00 in/hr0.0 mm/hr 0.00 in0.0 mm
05:59 PM 48.0°F8.9°C 42.7°F5.9°C 82% 0.6 mph S1.0 kmh S 2.3 mph3.7 kmh 30.56 in1034.9 mb 0.00 in0.0 mm 0.00 in/hr0.0 mm/hr 0.00 in0.0 mm
06:09 PM 48.0°F8.9°C 43.1°F6.2°C 83% 0.6 mph S1.0 kmh S 2.3 mph3.7 kmh 30.55 in1034.5 mb 0.00 in0.0 mm 0.00 in/hr0.0 mm/hr 0.00 in0.0 mm
06:19 PM 48.0°F8.9°C 43.1°F6.2°C 83% 1.0 mph S1.6 kmh S 2.3 mph3.7 kmh 30.55 in1034.5 mb 0.00 in0.0 mm 0.00 in/hr0.0 mm/hr 0.00 in0.0 mm
06:29 PM 48.0°F8.9°C 42.7°F5.9°C 82% 0.5 mph SSE0.8 kmh SSE 1.0 mph1.6 kmh 30.55 in1034.5 mb 0.00 in0.0 mm 0.00 in/hr0.0 mm/hr 0.00 in0.0 mm
06:39 PM 48.0°F8.9°C 42.7°F5.9°C 82% 0.7 mph SE1.1 kmh SE 2.3 mph3.7 kmh 30.55 in1034.5 mb 0.00 in0.0 mm 0.00 in/hr0.0 mm/hr 0.00 in0.0 mm
06:49 PM 47.7°F8.7°C 42.4°F5.8°C 82% Calm Calm 2.3 mph3.7 kmh 30.55 in1034.5 mb 0.00 in0.0 mm 0.00 in/hr0.0 mm/hr 0.00 in0.0 mm
06:59 PM 47.5°F8.6°C 42.5°F5.8°C 83% Calm Calm -- 30.55 in1034.5 mb 0.00 in0.0 mm 0.00 in/hr0.0 mm/hr 0.00 in0.0 mm
07:09 PM 47.1°F8.4°C 42.2°F5.7°C 83% Calm Calm -- 30.55 in1034.5 mb 0.00 in0.0 mm 0.00 in/hr0.0 mm/hr 0.00 in0.0 mm
07:19 PM 46.8°F8.2°C 42.2°F5.7°C 84% Calm Calm -- 30.55 in1034.5 mb 0.00 in0.0 mm 0.00 in/hr0.0 mm/hr 0.00 in0.0 mm
07:29 PM 46.6°F8.1°C 42.0°F5.6°C 84% Calm Calm -- 30.54 in1034.2 mb 0.00 in0.0 mm 0.00 in/hr0.0 mm/hr 0.00 in0.0 mm
07:39 PM 46.4°F8.0°C 42.1°F5.6°C 85% 0.1 mph S0.2 kmh S 1.0 mph1.6 kmh 30.54 in1034.2 mb 0.00 in0.0 mm 0.00 in/hr0.0 mm/hr 0.00 in0.0 mm
07:49 PM 46.2°F7.9°C 41.9°F5.5°C 85% 0.1 mph S0.2 kmh S 1.0 mph1.6 kmh 30.54 in1034.2 mb 0.00 in0.0 mm 0.00 in/hr0.0 mm/hr 0.00 in0.0 mm
07:59 PM 46.0°F7.8°C 41.8°F5.4°C 85% Calm Calm -- 30.54 in1034.2 mb 0.00 in0.0 mm 0.00 in/hr0.0 mm/hr 0.00 in0.0 mm
08:09 PM 45.7°F7.6°C 41.7°F5.4°C 86% Calm Calm 1.0 mph1.6 kmh 30.53 in1033.9 mb 0.00 in0.0 mm 0.00 in/hr0.0 mm/hr 0.00 in0.0 mm
08:19 PM 45.7°F7.6°C 41.7°F5.4°C 86% 0.3 mph S0.5 kmh S 1.0 mph1.6 kmh 30.54 in1034.2 mb 0.00 in0.0 mm 0.00 in/hr0.0 mm/hr 0.00 in0.0 mm
08:29 PM 45.7°F7.6°C 42.0°F5.6°C 87% 0.4 mph SSW0.6 kmh SSW 1.0 mph1.6 kmh 30.53 in1033.9 mb 0.00 in0.0 mm 0.00 in/hr0.0 mm/hr 0.00 in0.0 mm
08:39 PM 45.5°F7.5°C 41.8°F5.4°C 87% Calm Calm -- 30.53 in1033.9 mb 0.00 in0.0 mm 0.00 in/hr0.0 mm/hr 0.00 in0.0 mm
08:49 PM 44.8°F7.1°C 41.1°F5.1°C 87% 0.3 mph W0.5 kmh W 1.0 mph1.6 kmh 30.54 in1034.2 mb 0.00 in0.0 mm 0.00 in/hr0.0 mm/hr 0.00 in0.0 mm
08:59 PM 44.6°F7.0°C 41.3°F5.2°C 88% 0.7 mph WNW1.1 kmh WNW 2.3 mph3.7 kmh 30.54 in1034.2 mb 0.00 in0.0 mm 0.00 in/hr0.0 mm/hr 0.00 in0.0 mm
09:09 PM 44.8°F7.1°C 41.7°F5.4°C 89% 2.4 mph W3.9 kmh W 5.7 mph9.2 kmh 30.54 in1034.2 mb 0.00 in0.0 mm 0.00 in/hr0.0 mm/hr 0.00 in0.0 mm
09:19 PM 45.1°F7.3°C 42.1°F5.6°C 89% 1.2 mph WSW1.9 kmh WSW 3.4 mph5.5 kmh 30.54 in1034.2 mb 0.00 in0.0 mm 0.00 in/hr0.0 mm/hr 0.00 in0.0 mm
09:29 PM 45.3°F7.4°C 42.3°F5.7°C 89% 1.1 mph SW1.8 kmh SW 4.7 mph7.6 kmh 30.54 in1034.2 mb 0.00 in0.0 mm 0.00 in/hr0.0 mm/hr 0.00 in0.0 mm
09:39 PM 45.1°F7.3°C 42.1°F5.6°C 89% 0.5 mph SW0.8 kmh SW 1.0 mph1.6 kmh 30.54 in1034.2 mb 0.00 in0.0 mm 0.00 in/hr0.0 mm/hr 0.00 in0.0 mm
09:49 PM 45.3°F7.4°C 42.3°F5.7°C 89% 0.8 mph S1.3 kmh S 3.4 mph5.5 kmh 30.53 in1033.9 mb 0.00 in0.0 mm 0.00 in/hr0.0 mm/hr 0.00 in0.0 mm
09:59 PM 45.5°F7.5°C 42.4°F5.8°C 89% 1.2 mph SE1.9 kmh SE 3.4 mph5.5 kmh 30.53 in1033.9 mb 0.00 in0.0 mm 0.00 in/hr0.0 mm/hr 0.00 in0.0 mm
10:09 PM 45.7°F7.6°C 42.3°F5.7°C 88% 1.9 mph ESE3.1 kmh ESE 3.4 mph5.5 kmh 30.53 in1033.9 mb 0.00 in0.0 mm 0.00 in/hr0.0 mm/hr 0.00 in0.0 mm
10:19 PM 45.7°F7.6°C 42.3°F5.7°C 88% 2.1 mph SE3.4 kmh SE 3.4 mph5.5 kmh 30.53 in1033.9 mb 0.00 in0.0 mm 0.00 in/hr0.0 mm/hr 0.00 in0.0 mm
10:29 PM 45.7°F7.6°C 42.0°F5.6°C 87% 2.2 mph S3.5 kmh S 4.7 mph7.6 kmh 30.52 in1033.5 mb 0.00 in0.0 mm 0.00 in/hr0.0 mm/hr 0.00 in0.0 mm
10:39 PM 45.5°F7.5°C 41.8°F5.4°C 87% 1.5 mph SE2.4 kmh SE 4.7 mph7.6 kmh 30.53 in1033.9 mb 0.00 in0.0 mm 0.00 in/hr0.0 mm/hr 0.00 in0.0 mm
10:49 PM 45.1°F7.3°C 41.5°F5.3°C 87% 1.1 mph E1.8 kmh E 2.3 mph3.7 kmh 30.52 in1033.5 mb 0.00 in0.0 mm 0.00 in/hr0.0 mm/hr 0.00 in0.0 mm
10:59 PM 45.0°F7.2°C 41.6°F5.3°C 88% 2.2 mph SW3.5 kmh SW 4.7 mph7.6 kmh 30.52 in1033.5 mb 0.00 in0.0 mm 0.00 in/hr0.0 mm/hr 0.00 in0.0 mm
11:09 PM 44.8°F7.1°C 41.4°F5.2°C 88% 0.8 mph SW1.3 kmh SW 3.4 mph5.5 kmh 30.52 in1033.5 mb 0.00 in0.0 mm 0.00 in/hr0.0 mm/hr 0.00 in0.0 mm
11:19 PM 44.4°F6.9°C 41.1°F5.1°C 88% 1.6 mph SW2.6 kmh SW 6.7 mph10.8 kmh 30.52 in1033.5 mb 0.00 in0.0 mm 0.00 in/hr0.0 mm/hr 0.00 in0.0 mm
11:29 PM 44.6°F7.0°C 41.3°F5.2°C 88% 1.5 mph E2.4 kmh E 3.4 mph5.5 kmh 30.51 in1033.2 mb 0.00 in0.0 mm 0.00 in/hr0.0 mm/hr 0.00 in0.0 mm
11:39 PM 44.8°F7.1°C 41.4°F5.2°C 88% 0.2 mph NW0.3 kmh NW 1.0 mph1.6 kmh 30.51 in1033.2 mb 0.00 in0.0 mm 0.00 in/hr0.0 mm/hr 0.00 in0.0 mm
11:49 PM 45.0°F7.2°C 41.9°F5.5°C 89% 2.2 mph SE3.5 kmh SE 3.4 mph5.5 kmh 30.51 in1033.2 mb 0.00 in0.0 mm 0.00 in/hr0.0 mm/hr 0.00 in0.0 mm